BEG airport status
LYBE 062330Z 23004KT CAVOK 23/18 Q1018 NOSIG